Time;durP1;ratioP1;P1;durP2;ratioP2;P2;SDS_P1;SDS_P2;PMS_P1;PMS_P2;Temp;Humidity;BMP_temperature;BMP_pressure;BME280_temperature;BME280_humidity;BME280_pressure;Samples;Min_cycle;Max_cycle;Signal;HPM_P1;HPM_P2
2022/10/05 00:01:23;;;;;;;7.13;2.77;;;;;;;12.74;81.64;100864.78;5035908;28;20778;-82
2022/10/05 00:03:51;;;;;;;3.70;2.30;;;;;;;12.77;81.78;100862.13;5035488;28;20594;-81
2022/10/05 00:06:17;;;;;;;4.23;2.93;;;;;;;12.70;82.64;100850.91;5036118;28;20209;-81
2022/10/05 00:08:44;;;;;;;3.17;2.47;;;;;;;12.66;82.47;100851.84;5035460;28;20230;-79
2022/10/05 00:11:13;;;;;;;8.67;2.70;;;;;;;12.63;82.84;100846.69;5034925;28;20199;-83
2022/10/05 00:13:41;;;;;;;3.87;2.57;;;;;;;12.63;82.75;100836.22;5035795;28;20199;-81
2022/10/05 00:16:14;;;;;;;4.60;2.70;;;;;;;12.61;82.78;100832.75;5035526;28;20210;-80
2022/10/05 00:18:49;;;;;;;6.33;2.63;;;;;;;12.60;82.61;100843.25;5035806;28;20231;-81
2022/10/05 00:21:21;;;;;;;4.33;2.73;;;;;;;12.52;82.89;100833.78;5036184;28;20231;-80
2022/10/05 00:23:48;;;;;;;5.63;2.90;;;;;;;12.46;83.44;100826.06;5035823;28;20208;-81
2022/10/05 00:26:19;;;;;;;4.43;2.93;;;;;;;12.50;82.92;100819.88;5037550;28;20488;-82
2022/10/05 00:28:46;;;;;;;2.77;2.27;;;;;;;12.45;83.81;100820.88;5040850;28;20209;-83
2022/10/05 00:31:17;;;;;;;5.33;3.30;;;;;;;12.44;83.82;100806.06;5039813;28;20211;-83
2022/10/05 00:33:44;;;;;;;9.93;3.00;;;;;;;12.42;83.79;100797.38;5039347;28;20244;-82
2022/10/05 00:36:11;;;;;;;3.07;2.77;;;;;;;12.45;84.08;100792.09;5038448;28;20208;-81
2022/10/05 00:38:38;;;;;;;5.60;2.87;;;;;;;12.40;84.28;100791.31;5039007;28;20231;-81
2022/10/05 00:41:09;;;;;;;6.50;2.87;;;;;;;12.35;84.97;100772.19;5037711;28;20205;-80
2022/10/05 00:43:52;;;;;;;4.80;3.00;;;;;;;12.35;85.20;100767.84;5038715;28;20683;-82
2022/10/05 00:46:23;;;;;;;3.33;2.77;;;;;;;12.31;83.91;100781.91;5038078;28;20209;-81
2022/10/05 00:49:02;;;;;;;7.47;2.87;;;;;;;12.42;83.68;100807.84;5037680;28;20204;-82
2022/10/05 00:51:31;;;;;;;2.97;2.77;;;;;;;12.44;84.50;100796.44;5037224;28;20204;-81
2022/10/05 00:54:12;;;;;;;3.57;2.67;;;;;;;12.40;84.91;100778.22;5037271;28;20224;-80
2022/10/05 00:57:08;;;;;;;3.30;3.00;;;;;;;12.39;85.23;100758.16;5037047;28;20215;-82
2022/10/05 00:59:46;;;;;;;4.83;2.90;;;;;;;12.36;86.06;100755.63;5037171;28;20227;-82
2022/10/05 01:02:19;;;;;;;5.47;3.13;;;;;;;12.29;85.44;100758.38;5037150;28;20212;-81
2022/10/05 01:04:54;;;;;;;3.57;2.57;;;;;;;12.32;86.27;100733.88;5036035;28;20225;-80
2022/10/05 01:07:30;;;;;;;10.67;3.07;;;;;;;12.23;86.60;100728.81;5036390;28;20212;-81
2022/10/05 01:10:05;;;;;;;3.67;3.00;;;;;;;12.24;87.06;100713.09;5036431;28;20212;-81
2022/10/05 01:12:42;;;;;;;13.07;3.03;;;;;;;12.27;86.81;100714.81;5036415;28;20199;-80
2022/10/05 01:15:14;;;;;;;3.60;2.97;;;;;;;12.26;86.95;100728.78;5035705;28;20240;-81
2022/10/05 01:17:45;;;;;;;5.93;2.23;;;;;;;12.21;88.48;100696.59;5035498;28;20794;-81
2022/10/05 01:20:43;;;;;;;4.17;2.57;;;;;;;12.25;88.47;100680.81;5035395;28;20699;-81
2022/10/05 01:23:48;;;;;;;4.20;3.10;;;;;;;12.24;89.04;100681.69;5034908;28;20239;-82
2022/10/05 01:26:45;;;;;;;3.90;2.80;;;;;;;12.25;88.51;100672.06;5031368;28;20218;-82
2022/10/05 01:29:18;;;;;;;5.20;2.50;;;;;;;12.25;88.55;100688.66;5034666;28;20210;-80
2022/10/05 01:31:52;;;;;;;5.60;3.20;;;;;;;12.26;88.81;100673.81;5034591;28;20215;-82
2022/10/05 01:34:27;;;;;;;5.90;3.10;;;;;;;12.26;88.95;100679.91;5034386;28;20718;-80
2022/10/05 01:37:01;;;;;;;6.30;3.23;;;;;;;12.28;88.58;100688.56;5033843;28;20203;-81
2022/10/05 01:39:37;;;;;;;5.30;2.60;;;;;;;12.29;88.62;100690.31;5033932;28;20240;-81
2022/10/05 01:42:13;;;;;;;6.43;3.10;;;;;;;12.24;88.71;100681.69;5033378;28;20205;-81
2022/10/05 01:44:48;;;;;;;4.90;3.03;;;;;;;12.25;88.93;100693.91;5033962;28;20228;-81
2022/10/05 01:47:25;;;;;;;4.03;3.10;;;;;;;12.23;89.08;100676.47;5034074;28;20257;-81
2022/10/05 01:49:59;;;;;;;5.73;2.80;;;;;;;12.21;89.18;100670.41;5034026;28;20209;-81
2022/10/05 01:52:37;;;;;;;8.47;3.30;;;;;;;12.26;88.74;100669.44;5034453;28;20206;-80
2022/10/05 01:55:15;;;;;;;8.53;3.40;;;;;;;12.27;88.78;100671.16;5033662;28;20231;-80
2022/10/05 01:57:55;;;;;;;4.77;3.37;;;;;;;12.26;88.79;100679.91;5033866;28;20272;-81
2022/10/05 02:00:23;;;;;;;4.97;3.37;;;;;;;12.26;89.08;100681.66;5033870;28;20577;-82
2022/10/05 02:02:56;;;;;;;4.97;3.50;;;;;;;12.25;88.85;100667.72;5033646;28;20215;-80
2022/10/05 02:05:28;;;;;;;4.63;3.07;;;;;;;12.28;89.26;100664.16;5033133;28;20277;-81
2022/10/05 02:08:00;;;;;;;3.30;3.00;;;;;;;12.24;89.01;100660.75;5033233;28;20209;-80
2022/10/05 02:10:30;;;;;;;4.23;3.40;;;;;;;12.24;88.04;100675.59;5032888;28;20211;-82
2022/10/05 02:13:00;;;;;;;3.77;3.20;;;;;;;12.35;87.61;100689.31;5033815;28;20209;-80
2022/10/05 02:15:33;;;;;;;3.23;2.77;;;;;;;12.35;87.47;100701.53;5032894;28;20765;-81
2022/10/05 02:18:07;;;;;;;4.93;3.43;;;;;;;12.39;87.69;100705.78;5033386;28;20593;-80
2022/10/05 02:20:37;;;;;;;4.23;3.37;;;;;;;12.36;88.35;100690.19;5033024;28;20674;-81
2022/10/05 02:23:10;;;;;;;6.77;4.20;;;;;;;12.34;88.49;100679.72;5033679;28;20209;-81
2022/10/05 02:25:39;;;;;;;11.37;3.93;;;;;;;12.27;88.66;100673.78;5033687;28;20227;-80
2022/10/05 02:28:10;;;;;;;6.43;3.50;;;;;;;12.34;89.06;100668.41;5033708;28;20680;-81
2022/10/05 02:30:44;;;;;;;4.03;3.67;;;;;;;12.34;88.64;100673.63;5033888;28;20272;-82
2022/10/05 02:33:17;;;;;;;5.67;3.20;;;;;;;12.44;87.64;100683.84;5033190;28;20212;-82
2022/10/05 02:35:43;;;;;;;4.80;3.70;;;;;;;12.48;87.57;100702.97;5033539;28;20234;-82
2022/10/05 02:38:17;;;;;;;4.50;4.07;;;;;;;12.51;87.39;100690.69;5034686;28;20229;-81
2022/10/05 02:40:53;;;;;;;4.20;3.60;;;;;;;12.48;88.35;100672.41;5034644;28;20210;-81
2022/10/05 02:43:27;;;;;;;4.13;3.03;;;;;;;12.45;88.07;100674.28;5033543;28;20210;-81
2022/10/05 02:46:02;;;;;;;5.90;3.30;;;;;;;12.40;88.86;100655.19;5033732;28;20283;-82
2022/10/05 02:48:39;;;;;;;3.53;3.23;;;;;;;12.39;88.44;100656.94;5033871;28;20678;-81
2022/10/05 02:51:15;;;;;;;3.80;3.50;;;;;;;12.49;88.33;100661.06;5033713;28;20211;-81
2022/10/05 02:53:48;;;;;;;3.50;3.30;;;;;;;12.44;88.00;100670.75;5033996;28;20203;-81
2022/10/05 02:56:23;;;;;;;6.13;3.60;;;;;;;12.55;87.44;100690.59;5034252;28;20683;-81
2022/10/05 02:58:59;;;;;;;5.23;3.80;;;;;;;12.58;87.97;100688.78;5034318;28;20227;-83
2022/10/05 03:01:34;;;;;;;19.80;5.50;;;;;;;12.57;88.27;100679.22;5033783;28;20207;-83
2022/10/05 03:04:14;;;;;;;4.17;3.40;;;;;;;12.61;87.82;100686.09;5034017;28;20669;-82
2022/10/05 03:06:49;;;;;;;6.33;3.50;;;;;;;12.64;87.23;100699.09;5033779;28;20592;-82
2022/10/05 03:09:20;;;;;;;6.10;3.53;;;;;;;12.66;87.69;100683.38;5034331;28;20211;-81
2022/10/05 03:11:54;;;;;;;6.67;3.60;;;;;;;12.64;88.31;100664.22;5034121;28;20206;-83
2022/10/05 03:14:26;;;;;;;3.83;3.53;;;;;;;12.68;87.65;100666.72;5033743;28;20236;-82
2022/10/05 03:17:06;;;;;;;14.43;3.67;;;;;;;12.66;87.22;100670.28;5034040;28;20220;-82
2022/10/05 03:19:50;;;;;;;4.57;3.50;;;;;;;12.67;87.10;100661.53;5033998;28;20232;-81
2022/10/05 03:22:27;;;;;;;4.07;3.60;;;;;;;12.67;86.46;100685.94;5038303;28;20215;-81
2022/10/05 03:25:09;;;;;;;4.47;3.57;;;;;;;12.66;86.65;100689.47;5033451;28;20232;-81
2022/10/05 03:27:44;;;;;;;4.67;4.03;;;;;;;12.69;86.27;100707.72;5033327;28;20210;-80
2022/10/05 03:30:15;;;;;;;3.73;3.33;;;;;;;12.67;86.56;100699.06;5033147;28;20199;-80
2022/10/05 03:32:53;;;;;;;4.63;3.73;;;;;;;12.75;86.27;100709.34;5032768;28;20277;-80
2022/10/05 03:35:27;;;;;;;4.77;3.53;;;;;;;12.74;86.14;100723.34;5032126;28;20228;-81
2022/10/05 03:38:03;;;;;;;4.57;4.17;;;;;;;12.78;85.87;100724.13;5032673;28;20590;-81
2022/10/05 03:40:36;;;;;;;5.97;3.53;;;;;;;12.75;86.25;100732.94;5032631;28;20586;-82
2022/10/05 03:43:22;;;;;;;4.03;3.63;;;;;;;12.71;86.87;100705.09;5032006;28;20262;-83
2022/10/05 03:46:00;;;;;;;4.70;4.07;;;;;;;12.68;86.64;100700.75;5034560;28;20227;-81
2022/10/05 03:48:34;;;;;;;4.70;3.43;;;;;;;12.61;87.30;100677.41;5036506;28;20227;-82
2022/10/05 03:51:07;;;;;;;5.83;3.43;;;;;;;12.62;87.48;100679.94;5036242;28;20676;-81
2022/10/05 03:53:43;;;;;;;4.20;3.80;;;;;;;12.61;87.42;100667.78;5036713;28;20674;-82
2022/10/05 03:56:14;;;;;;;3.40;3.10;;;;;;;12.58;88.17;100651.25;5036369;28;20219;-81
2022/10/05 03:58:44;;;;;;;4.83;3.57;;;;;;;12.55;87.98;100643.47;5036647;28;20236;-80
2022/10/05 04:01:23;;;;;;;4.00;3.60;;;;;;;12.51;88.32;100640.09;5036304;28;20267;-80
2022/10/05 04:03:56;;;;;;;5.73;4.13;;;;;;;12.46;88.18;100627.09;5036135;28;20272;-81
2022/10/05 04:06:26;;;;;;;7.00;3.33;;;;;;;12.44;88.88;100612.31;5035872;28;20872;-81
2022/10/05 04:08:59;;;;;;;3.97;3.23;;;;;;;12.40;88.71;100611.53;5036402;28;20214;-80
2022/10/05 04:11:30;;;;;;;7.20;4.00;;;;;;;12.38;89.07;100599.38;5035157;28;20263;-82
2022/10/05 04:14:03;;;;;;;5.70;3.30;;;;;;;12.36;89.38;100581.09;5036290;28;20250;-81
2022/10/05 04:16:34;;;;;;;5.67;3.47;;;;;;;12.37;89.75;100580.19;5036159;28;20222;-81
2022/10/05 04:19:10;;;;;;;6.30;4.27;;;;;;;12.36;89.32;100577.63;5036745;28;20236;-81
2022/10/05 04:21:45;;;;;;;6.63;3.53;;;;;;;12.26;90.17;100553.41;5036464;28;20212;-82
2022/10/05 04:24:17;;;;;;;6.03;3.80;;;;;;;12.27;89.86;100547.28;5037555;28;20730;-81
2022/10/05 04:26:51;;;;;;;5.07;3.90;;;;;;;12.23;90.29;100543.00;5038653;28;20209;-83
2022/10/05 04:29:38;;;;;;;4.57;3.80;;;;;;;12.28;90.47;100551.63;5043928;28;20208;-81
2022/10/05 04:32:25;;;;;;;4.60;4.20;;;;;;;12.26;91.13;100522.00;5037687;28;20203;-81
2022/10/05 04:35:09;;;;;;;5.47;3.90;;;;;;;12.24;90.83;100518.56;5036451;28;20239;-83
2022/10/05 04:37:42;;;;;;;3.97;3.60;;;;;;;12.18;91.58;100516.09;5037338;28;20214;-81
2022/10/05 04:40:21;;;;;;;4.33;3.80;;;;;;;12.26;90.94;100507.16;5038610;28;20246;-82
2022/10/05 04:42:57;;;;;;;7.63;4.03;;;;;;;12.30;90.77;100515.78;5036377;28;20210;-81
2022/10/05 04:45:36;;;;;;;3.70;3.37;;;;;;;12.29;90.73;100514.94;5037246;28;20239;-83
2022/10/05 04:48:26;;;;;;;4.90;4.40;;;;;;;12.37;89.39;100561.88;5037232;28;20208;-82
2022/10/05 04:51:11;;;;;;;7.73;4.50;;;;;;;12.47;87.74;100610.50;5037501;28;20216;-82
2022/10/05 04:53:46;;;;;;;9.90;4.83;;;;;;;12.60;87.50;100618.91;5038787;28;20223;-81
2022/10/05 04:56:19;;;;;;;7.97;4.47;;;;;;;12.70;87.31;100616.91;5036705;28;20260;-82
2022/10/05 04:59:06;;;;;;;4.60;4.20;;;;;;;12.73;87.04;100632.56;5036992;28;20683;-82
2022/10/05 05:01:49;;;;;;;4.93;4.20;;;;;;;12.72;87.05;100633.44;5037694;28;20216;-81
2022/10/05 05:04:36;;;;;;;4.80;4.40;;;;;;;12.70;86.38;100658.81;5036972;28;20718;-82
2022/10/05 05:07:19;;;;;;;7.43;5.10;;;;;;;12.76;86.06;100681.38;5037113;28;20593;-83
2022/10/05 05:10:06;;;;;;;5.73;4.00;;;;;;;12.80;85.68;100681.28;5038063;28;20596;-82
2022/10/05 05:12:45;;;;;;;3.50;3.30;;;;;;;12.85;86.24;100679.41;5039683;28;20227;-83
2022/10/05 05:15:27;;;;;;;5.97;4.50;;;;;;;12.85;86.03;100683.78;5036971;28;20263;-83
2022/10/05 05:18:12;;;;;;;4.83;3.90;;;;;;;12.86;85.76;100688.13;5036948;28;20219;-81
2022/10/05 05:20:54;;;;;;;4.27;3.97;;;;;;;12.77;86.08;100683.97;5037101;28;20235;-83
2022/10/05 05:23:32;;;;;;;4.87;4.47;;;;;;;12.77;85.80;100672.66;5037394;28;20858;-82
2022/10/05 05:26:11;;;;;;;4.63;4.23;;;;;;;12.77;86.11;100670.88;5036358;28;20230;-83
2022/10/05 05:28:47;;;;;;;4.30;3.90;;;;;;;12.69;86.73;100657.97;5037211;28;20205;-82
2022/10/05 05:31:25;;;;;;;4.47;4.10;;;;;;;12.68;86.90;100652.75;5037148;28;20215;-82
2022/10/05 05:34:02;;;;;;;5.50;4.30;;;;;;;12.71;87.08;100648.31;5036942;28;20219;-83
2022/10/05 05:36:50;;;;;;;4.57;4.10;;;;;;;12.71;87.34;100636.97;5036187;28;20215;-81
2022/10/05 05:39:28;;;;;;;4.37;3.87;;;;;;;12.70;87.89;100635.25;5035224;28;20229;-84
2022/10/05 05:42:01;;;;;;;6.93;4.30;;;;;;;12.64;87.70;100622.31;5034180;28;20202;-82
2022/10/05 05:44:29;;;;;;;8.93;4.13;;;;;;;12.60;88.66;100602.34;5037152;28;20223;-80
2022/10/05 05:47:00;;;;;;;4.90;3.60;;;;;;;12.57;88.31;100605.03;5041015;28;20207;-81
2022/10/05 05:49:35;;;;;;;5.07;4.47;;;;;;;12.50;88.08;100628.72;5039120;28;20615;-81
2022/10/05 05:52:10;;;;;;;4.83;4.50;;;;;;;12.52;87.95;100633.94;5040503;28;20208;-82
2022/10/05 05:54:42;;;;;;;5.90;4.47;;;;;;;12.52;88.37;100637.41;5040668;28;20224;-83
2022/10/05 05:57:15;;;;;;;4.57;3.90;;;;;;;12.43;88.99;100619.31;5040147;28;20207;-82
2022/10/05 05:59:51;;;;;;;4.30;3.60;;;;;;;12.51;89.17;100603.44;5040917;28;20488;-84
2022/10/05 06:02:21;;;;;;;5.27;3.93;;;;;;;12.54;89.30;100599.88;5041615;28;20203;-83
2022/10/05 06:04:53;;;;;;;4.90;3.93;;;;;;;12.51;89.12;100588.56;5040225;28;20228;-84
2022/10/05 06:07:25;;;;;;;4.00;3.60;;;;;;;12.56;89.01;100601.53;5041833;28;20215;-83
2022/10/05 06:09:59;;;;;;;8.97;3.50;;;;;;;12.54;90.05;100582.38;5042825;28;20223;-81
2022/10/05 06:12:32;;;;;;;5.00;3.60;;;;;;;12.51;90.03;100583.34;5038477;28;20204;-82
2022/10/05 06:15:05;;;;;;;5.90;4.03;;;;;;;12.51;90.73;100564.16;5044286;28;20229;-82
2022/10/05 06:17:37;;;;;;;8.30;4.20;;;;;;;12.47;89.78;100580.84;5043098;28;20292;-82
2022/10/05 06:20:11;;;;;;;5.20;3.43;;;;;;;12.47;90.78;100571.22;5043277;28;20217;-81
2022/10/05 06:22:44;;;;;;;5.77;4.07;;;;;;;12.51;90.48;100562.38;5043780;28;20659;-81
2022/10/05 06:25:22;;;;;;;5.07;3.53;;;;;;;12.50;90.24;100585.97;5043271;28;20233;-82
2022/10/05 06:28:03;;;;;;;3.83;3.53;;;;;;;12.52;90.35;100571.09;5043023;28;20221;-81
2022/10/05 06:30:44;;;;;;;3.80;3.50;;;;;;;12.51;90.52;100580.72;5044670;28;20203;-82
2022/10/05 06:33:23;;;;;;;5.07;4.20;;;;;;;12.60;89.76;100603.19;5044249;28;20226;-79
2022/10/05 06:36:04;;;;;;;8.63;4.73;;;;;;;12.58;90.54;100588.41;5043547;28;20228;-81
2022/10/05 06:39:01;;;;;;;5.17;4.23;;;;;;;12.54;91.28;100573.69;5044199;28;20303;-80
2022/10/05 06:41:38;;;;;;;4.83;4.43;;;;;;;12.60;90.75;100579.63;5041168;28;20250;-83
2022/10/05 06:44:10;;;;;;;5.07;3.93;;;;;;;12.64;90.21;100589.13;5042281;28;20220;-81
2022/10/05 06:46:47;;;;;;;4.20;3.90;;;;;;;12.65;90.04;100609.19;5045302;28;20212;-80
2022/10/05 06:49:21;;;;;;;5.83;4.13;;;;;;;12.64;89.94;100615.31;5044307;28;20202;-82
2022/10/05 06:51:55;;;;;;;4.67;4.27;;;;;;;12.74;89.60;100617.69;5042459;28;20209;-83
2022/10/05 06:54:41;;;;;;;4.63;4.03;;;;;;;12.78;89.80;100617.56;5044378;28;20219;-82
2022/10/05 06:57:19;;;;;;;8.10;4.63;;;;;;;12.81;89.63;100614.03;5042586;28;20205;-82
2022/10/05 06:59:54;;;;;;;4.60;4.03;;;;;;;12.79;89.12;100631.56;5043242;28;20224;-82
2022/10/05 07:02:27;;;;;;;7.67;4.30;;;;;;;12.79;90.27;100589.66;5043843;28;20620;-82
2022/10/05 07:05:27;;;;;;;8.50;4.87;;;;;;;12.84;90.77;100586.00;5044837;28;20355;-81
2022/10/05 07:07:57;;;;;;;6.30;5.20;;;;;;;12.85;90.40;100592.97;5039004;28;20204;-83
2022/10/05 07:10:32;;;;;;;5.20;4.67;;;;;;;12.89;89.54;100596.38;5038888;28;20200;-82
2022/10/05 07:13:12;;;;;;;5.50;5.00;;;;;;;12.95;89.42;100616.31;5034344;28;20205;-82
2022/10/05 07:15:48;;;;;;;4.90;4.40;;;;;;;13.07;88.90;100626.47;5034776;28;20243;-82
2022/10/05 07:18:32;;;;;;;5.13;4.70;;;;;;;13.17;89.17;100630.56;5034380;28;20499;-82
2022/10/05 07:21:06;;;;;;;4.93;4.50;;;;;;;13.24;87.34;100673.19;5040119;28;20227;-82
2022/10/05 07:23:45;;;;;;;4.60;4.13;;;;;;;13.35;86.79;100691.31;5047221;28;20206;-82
2022/10/05 07:26:19;;;;;;;5.17;4.13;;;;;;;13.41;86.43;100699.00;5047257;28;20204;-82
2022/10/05 07:28:52;;;;;;;5.07;4.60;;;;;;;13.38;85.45;100731.44;5043234;28;20340;-82
2022/10/05 07:31:26;;;;;;;7.80;5.10;;;;;;;13.56;85.93;100726.56;5049199;28;20284;-82
2022/10/05 07:34:04;;;;;;;9.27;4.80;;;;;;;13.64;85.44;100737.75;5039227;28;20266;-82
2022/10/05 07:39:34;;;;;;;5.67;4.13;;;;;;;13.70;85.88;100730.56;5039847;28;20212;-81
2022/10/05 07:42:21;;;;;;;5.87;4.43;;;;;;;13.71;85.40;100734.03;5032820;28;20231;-80
2022/10/05 07:44:53;;;;;;;5.60;5.00;;;;;;;13.71;85.64;100734.03;5040446;28;20227;-82
2022/10/05 07:47:29;;;;;;;4.60;4.30;;;;;;;13.70;85.82;100722.69;5040298;28;20636;-83
2022/10/05 07:50:02;;;;;;;5.10;4.60;;;;;;;13.71;85.89;100710.44;5039968;28;20212;-83
2022/10/05 07:52:36;;;;;;;5.80;5.30;;;;;;;13.70;85.36;100722.69;5039470;28;20219;-83
2022/10/05 07:55:12;;;;;;;6.03;5.30;;;;;;;13.62;85.98;100706.31;5039419;28;20254;-83
2022/10/05 07:57:48;;;;;;;5.23;4.77;;;;;;;13.66;86.30;100707.94;5039709;28;20204;-82
2022/10/05 08:00:20;;;;;;;5.90;4.83;;;;;;;13.75;86.22;100687.59;5039369;28;20223;-83
2022/10/05 08:02:51;;;;;;;6.50;4.53;;;;;;;13.74;86.47;100691.13;5039940;28;20243;-82
2022/10/05 08:05:25;;;;;;;6.27;4.83;;;;;;;13.79;85.92;100702.34;5038938;28;20233;-83
2022/10/05 08:07:57;;;;;;;4.90;4.60;;;;;;;13.83;85.85;100701.34;5040199;28;20212;-82
2022/10/05 08:10:31;;;;;;;5.07;4.43;;;;;;;13.82;85.16;100723.25;5040410;28;20209;-83
2022/10/05 08:13:07;;;;;;;5.57;4.53;;;;;;;13.88;85.82;100717.84;5033017;28;20230;-82
2022/10/05 08:15:41;;;;;;;5.00;4.57;;;;;;;13.94;85.15;100736.03;5039506;28;20240;-82
2022/10/05 08:18:16;;;;;;;5.20;4.70;;;;;;;14.01;84.95;100745.47;5040035;28;20203;-83
2022/10/05 08:20:47;;;;;;;5.37;4.80;;;;;;;14.05;84.72;100747.09;5039814;28;20239;-83
2022/10/05 08:23:22;;;;;;;5.30;4.90;;;;;;;14.01;84.11;100761.22;5054202;28;20212;-82
2022/10/05 08:25:58;;;;;;;5.53;5.03;;;;;;;13.90;84.69;100758.03;5052099;28;20258;-80
2022/10/05 08:28:31;;;;;;;5.10;4.70;;;;;;;13.99;84.18;100751.66;5055892;28;20224;-80
2022/10/05 08:31:08;;;;;;;5.50;4.83;;;;;;;14.04;84.50;100753.25;5050354;28;20205;-81
2022/10/05 08:33:44;;;;;;;5.67;4.47;;;;;;;14.10;84.61;100754.84;5055870;28;20227;-81
2022/10/05 08:36:14;;;;;;;6.13;5.53;;;;;;;14.09;84.64;100753.97;5055949;28;20263;-79
2022/10/05 08:38:41;;;;;;;5.30;4.80;;;;;;;14.17;84.91;100745.88;5055920;28;20216;-81
2022/10/05 08:41:28;;;;;;;6.33;4.83;;;;;;;14.20;84.36;100760.69;5048548;28;20685;-79
2022/10/05 08:44:30;;;;;;;5.23;4.83;;;;;;;14.22;84.31;100766.75;5030037;28;20208;-82
2022/10/05 08:47:14;;;;;;;5.63;4.97;;;;;;;14.33;83.16;100787.44;5036988;28;20223;-81
2022/10/05 08:50:04;;;;;;;5.73;5.23;;;;;;;14.39;82.82;100814.41;5036513;28;20213;-80
2022/10/05 08:52:35;;;;;;;5.27;4.87;;;;;;;14.49;83.25;100815.00;5036468;28;20220;-80
2022/10/05 08:55:23;;;;;;;5.80;5.20;;;;;;;14.58;83.82;100788.47;5036297;28;20228;-79
2022/10/05 08:58:25;;;;;;;5.13;4.83;;;;;;;14.60;83.11;100809.44;5036881;28;20209;-81
2022/10/05 09:00:58;;;;;;;5.27;4.73;;;;;;;14.52;81.87;100833.28;5036816;28;20232;-80
2022/10/05 09:03:50;;;;;;;5.77;5.00;;;;;;;14.66;82.04;100846.06;5037266;28;20343;-80
2022/10/05 09:06:42;;;;;;;4.90;4.50;;;;;;;14.77;82.55;100833.47;5036181;28;20224;-80
2022/10/05 09:09:53;;;;;;;6.20;5.60;;;;;;;14.77;81.87;100846.59;5015427;28;20212;-82
2022/10/05 09:12:44;;;;;;;5.10;4.60;;;;;;;14.83;82.59;100833.28;4971099;28;20203;-81
2022/10/05 09:15:33;;;;;;;8.03;5.27;;;;;;;14.85;81.48;100867.41;5011707;28;20256;-79
2022/10/05 09:18:19;;;;;;;5.57;5.07;;;;;;;14.94;81.66;100853.97;5016579;28;20217;-80
2022/10/05 09:20:52;;;;;;;6.03;5.57;;;;;;;15.01;80.63;100879.16;5015669;28;20230;-81
2022/10/05 09:23:36;;;;;;;5.30;4.90;;;;;;;15.09;80.69;100877.16;5016729;28;20248;-81
2022/10/05 09:26:42;;;;;;;5.10;4.63;;;;;;;15.23;80.61;100887.25;5016164;28;20256;-80
2022/10/05 09:29:34;;;;;;;5.80;5.17;;;;;;;15.23;79.40;100908.28;5016393;28;20220;-80
2022/10/05 09:32:30;;;;;;;5.20;4.70;;;;;;;15.36;79.76;100915.81;5016032;28;20203;-81
2022/10/05 09:35:16;;;;;;;5.60;5.10;;;;;;;15.37;78.77;100946.47;5016085;28;20239;-80
2022/10/05 09:38:04;;;;;;;4.90;4.50;;;;;;;15.33;79.57;100944.84;5015979;28;20213;-80
2022/10/05 09:41:00;;;;;;;4.97;4.53;;;;;;;15.25;78.71;100958.22;5024781;28;20742;-82
2022/10/05 09:43:59;;;;;;;6.13;5.47;;;;;;;15.24;79.00;100969.63;5034746;28;20201;-80
2022/10/05 09:46:47;;;;;;;4.97;4.47;;;;;;;15.24;78.38;100972.28;5035693;28;20209;-80
2022/10/05 09:49:39;;;;;;;6.43;5.03;;;;;;;15.24;79.54;100946.84;5036647;28;20206;-82
2022/10/05 09:52:30;;;;;;;6.03;5.53;;;;;;;15.25;78.35;100947.72;5038904;28;20610;-81
2022/10/05 09:55:24;;;;;;;5.17;4.70;;;;;;;15.27;78.39;100951.16;5038551;28;20606;-83
2022/10/05 09:58:27;;;;;;;5.20;4.80;;;;;;;15.27;79.05;100930.97;5038184;28;20209;-81
2022/10/05 10:01:20;;;;;;;5.83;5.37;;;;;;;15.37;78.90;100921.03;5037631;28;20229;-82
2022/10/05 10:04:12;;;;;;;5.37;4.87;;;;;;;15.47;78.61;100929.50;5035151;28;20247;-80
2022/10/05 10:07:12;;;;;;;6.33;5.77;;;;;;;15.49;77.72;100960.09;5037870;28;20257;-81
2022/10/05 10:09:52;;;;;;;5.87;5.37;;;;;;;15.46;77.85;100977.75;5037750;28;20221;-82
2022/10/05 10:12:42;;;;;;;5.87;5.40;;;;;;;15.34;77.55;100978.13;5037242;28;20603;-82
2022/10/05 10:15:47;;;;;;;5.43;4.93;;;;;;;15.32;77.60;100982.56;5017824;28;20866;-81
2022/10/05 10:18:28;;;;;;;5.60;5.10;;;;;;;15.21;77.90;100973.22;5018293;28;20214;-82
2022/10/05 10:21:16;;;;;;;6.10;5.70;;;;;;;15.21;78.03;100964.50;5016642;28;20231;-83
2022/10/05 10:24:12;;;;;;;6.13;5.70;;;;;;;15.26;77.83;100954.69;5017766;28;20213;-81
2022/10/05 10:26:57;;;;;;;7.10;4.90;;;;;;;15.27;78.17;100949.38;5017536;28;20218;-82
2022/10/05 10:29:47;;;;;;;5.53;5.07;;;;;;;15.31;78.93;100923.84;5017686;28;20310;-80
2022/10/05 10:32:59;;;;;;;5.67;5.27;;;;;;;15.35;77.90;100943.88;5017834;28;20206;-82
2022/10/05 10:35:31;;;;;;;5.67;5.17;;;;;;;15.37;77.84;100936.81;4980707;28;20681;-82
2022/10/05 10:38:36;;;;;;;6.10;5.60;;;;;;;15.23;77.73;100942.50;5017215;28;20264;-81
2022/10/05 10:41:17;;;;;;;5.47;5.07;;;;;;;15.30;78.47;100932.63;4949204;29;20232;-81
2022/10/05 10:44:22;;;;;;;6.07;5.67;;;;;;;15.20;78.00;100936.44;5026127;28;20210;-82
2022/10/05 10:47:07;;;;;;;9.80;5.83;;;;;;;15.11;78.41;100924.47;5036715;28;20275;-82
2022/10/05 10:49:51;;;;;;;6.20;5.73;;;;;;;15.16;78.63;100911.16;5036999;28;20202;-83
2022/10/05 10:52:38;;;;;;;6.57;6.00;;;;;;;15.18;79.19;100893.56;5037037;28;20209;-82
2022/10/05 10:55:26;;;;;;;6.20;5.70;;;;;;;15.19;78.44;100904.03;5039677;28;20234;-78
2022/10/05 10:58:21;;;;;;;6.20;5.80;;;;;;;15.24;78.20;100901.25;5040748;28;20217;-83
2022/10/05 11:00:53;;;;;;;5.70;5.30;;;;;;;15.16;78.08;100909.38;5040450;28;20616;-83
2022/10/05 11:03:58;;;;;;;6.27;5.87;;;;;;;15.19;77.99;100908.44;5040571;28;20738;-82
2022/10/05 11:06:44;;;;;;;6.77;6.27;;;;;;;15.19;78.86;100909.31;5039680;28;20212;-81
2022/10/05 11:09:28;;;;;;;5.87;5.40;;;;;;;15.23;78.06;100878.50;5040926;28;20223;-79
2022/10/05 11:12:20;;;;;;;6.00;5.60;;;;;;;15.05;77.95;100895.72;5040498;28;20206;-80
2022/10/05 11:15:01;;;;;;;5.53;5.13;;;;;;;15.27;79.20;100877.50;5040592;28;20226;-81
2022/10/05 11:17:51;;;;;;;5.27;4.97;;;;;;;15.34;78.45;100870.28;5040800;28;20214;-80
2022/10/05 11:20:45;;;;;;;5.13;4.83;;;;;;;15.42;78.67;100863.88;5039933;28;20213;-82
2022/10/05 11:23:41;;;;;;;5.43;5.03;;;;;;;15.34;77.08;100886.94;5004264;28;20676;-83
2022/10/05 11:26:28;;;;;;;4.90;4.53;;;;;;;15.43;77.50;100907.69;5041110;28;20279;-80
2022/10/05 11:29:24;;;;;;;5.07;4.77;;;;;;;15.53;77.74;100891.59;5041821;28;20219;-80
2022/10/05 11:32:16;;;;;;;5.40;5.00;;;;;;;15.35;76.81;100903.56;5040441;28;20235;-80
2022/10/05 11:35:02;;;;;;;4.90;4.50;;;;;;;15.33;76.91;100908.03;5040592;28;20233;-81
2022/10/05 11:38:07;;;;;;;4.70;4.30;;;;;;;15.45;77.34;100905.84;5039947;28;20204;-83
2022/10/05 11:41:07;;;;;;;5.27;4.80;;;;;;;15.43;77.28;100889.25;5020115;28;20215;-81
2022/10/05 11:44:02;;;;;;;5.30;5.00;;;;;;;15.54;76.59;100899.47;5040082;28;20695;-81
2022/10/05 11:46:38;;;;;;;4.00;3.70;;;;;;;15.59;76.96;100897.53;5039838;28;20209;-81
2022/10/05 11:49:27;;;;;;;4.03;3.70;;;;;;;15.62;76.61;100901.84;5040485;28;20216;-81
2022/10/05 11:52:01;;;;;;;4.80;4.33;;;;;;;15.73;77.20;100867.28;5039328;28;20213;-81
2022/10/05 11:54:41;;;;;;;4.40;4.00;;;;;;;15.78;75.52;100905.72;5040159;28;20235;-80
2022/10/05 11:57:16;;;;;;;4.50;4.10;;;;;;;15.88;74.12;100946.63;5040330;28;20234;-81
2022/10/05 11:59:51;;;;;;;3.97;3.57;;;;;;;16.33;72.85;100970.59;5039984;28;20295;-79
2022/10/05 12:02:42;;;;;;;3.57;3.30;;;;;;;17.14;70.49;101035.44;5040166;28;20226;-83
2022/10/05 12:05:18;;;;;;;3.73;3.47;;;;;;;18.11;66.56;101134.78;5039531;28;20721;-82
2022/10/05 12:07:57;;;;;;;2.97;2.77;;;;;;;19.03;63.64;101263.34;5039571;28;20665;-80
2022/10/05 12:10:34;;;;;;;3.07;2.87;;;;;;;19.83;60.77;101372.09;5038935;28;20261;-81
2022/10/05 12:13:22;;;;;;;2.90;2.67;;;;;;;20.79;58.19;101498.78;5032473;28;20665;-81
2022/10/05 12:15:54;;;;;;;3.33;3.10;;;;;;;20.49;54.83;101598.22;5039654;28;20241;-81
2022/10/05 12:18:27;;;;;;;2.70;2.50;;;;;;;20.66;55.07;101640.88;5039256;28;20240;-80
2022/10/05 12:20:59;;;;;;;2.47;2.27;;;;;;;20.98;54.81;101652.75;5038820;28;20594;-83
2022/10/05 12:23:30;;;;;;;2.63;2.43;;;;;;;20.98;54.25;101634.16;5039063;28;20209;-80